Aérodrome :
LOGIN :

S'inscrire | Disclaimer

   EN    FR    IT 

 










Légende :    VFR   VFR Marginal   IFR   IFR Intensif   IFR Très Intensif
Visi : 
Plafond : 
>= 8 km
>= 3000ft
5 à 8 km
1000 à 3000 ft
1500m à 5 km
500 à 1000 ft
800 à 1500m
200 à 500 ft
< 800m
< 200 ft
Symboles :   Orages  Brouillard  Fortes neiges  Fortes précipitations  Vent > 20 kt
SIGMETs :   Divers  Orages  Givrage  Turbulence  Onde Orograph.  Cendres Volcan.







- Altitude de l'aérodrome : 184 ft
- Code IATA : BRU


EBBR - Bruxelles

DERNIER METAR :
  • 240850Z 01007KT 340V040 9999 BKN022 15/09 Q1024 NOSIG

METARs EXPIRÉS :
  • 240820Z 01006KT 330V050 9999 BKN020 15/10 Q1024 NOSIG
  • 240750Z 01007KT 350V050 9999 BKN018 14/09 Q1024 NOSIG
  • 240720Z 36006KT 9999 BKN018 14/10 Q1024 NOSIG
  • 240620Z 35005KT 320V020 9999 BKN018 13/10 Q1024 NOSIG

TAF TAF EBBR
Valide du 24 à 06h jusqu'au 25 à 12h UTC


240520Z 2406/2512 34005KT 9999 SCT018
PROB30
TEMPO 2406/2408 BKN014
PROB40
TEMPO 2500/2509 4500 BR BKKN006
Pas de NOTAMs connus pour ce terrain.



MET'MAP, la Météo Aéronautique d'un coup d'oeil ! - Copyright ORBIFLY Décembre 2007 - Disclaimer

ORBIFLY MET'MAP TEAM :

Programmation & Développement : Alexandra Zaïnal
Conception & Développement : Baudouin d'Aumeries
Co-Programmation & Développement : Marc-Olivier Méhu
Soutien technique & logistique : Manuel Goepfert

Contact : metmap@orbifly.com




SOURCES & CREDITS :

   NOAA